Time;durP1;ratioP1;P1;durP2;ratioP2;P2;SDS_P1;SDS_P2;PMS_P1;PMS_P2;Temp;Humidity;BMP_temperature;BMP_pressure;BME280_temperature;BME280_humidity;BME280_pressure;Samples;Min_cycle;Max_cycle;Signal;HPM_P1;HPM_P2
2022/11/15 00:09:36;;;;;;;54.50;26.40;;;;;;;8.13;100.00;100710.58;663206;1302;138852;-79
2022/11/15 00:25:06;;;;;;;58.80;28.30;;;;;;;8.19;100.00;100689.46;661312;1310;138987;-80
2022/11/15 00:40:29;;;;;;;54.80;27.30;;;;;;;8.16;100.00;100657.27;661923;1308;139061;-79
2022/11/15 00:55:52;;;;;;;60.00;28.80;;;;;;;8.14;100.00;100638.02;661694;1306;140916;-79
2022/11/15 01:11:14;;;;;;;55.30;25.00;;;;;;;8.15;100.00;100632.92;661935;1310;138669;-80
2022/11/15 01:26:35;;;;;;;58.90;25.30;;;;;;;8.06;100.00;100615.27;661630;1308;138779;-79
2022/11/15 01:41:57;;;;;;;60.10;27.20;;;;;;;8.02;100.00;100596.39;661875;1310;138773;-80
2022/11/15 01:57:20;;;;;;;65.50;31.70;;;;;;;8.07;100.00;100586.98;661669;1310;138806;-79
2022/11/15 02:12:42;;;;;;;65.80;30.40;;;;;;;8.03;100.00;100565.33;661669;1296;138767;-79
2022/11/15 02:28:23;;;;;;;67.40;30.40;;;;;;;7.77;100.00;100540.73;661806;1295;138973;-79
2022/11/15 02:44:00;;;;;;;72.60;32.50;;;;;;;7.70;100.00;100520.31;661396;1310;138767;-79
2022/11/15 02:59:28;;;;;;;68.60;29.40;;;;;;;7.41;100.00;100515.59;661697;1305;138609;-78
2022/11/15 03:14:59;;;;;;;80.70;32.80;;;;;;;7.40;100.00;100507.66;661719;1310;138833;-79
2022/11/15 03:30:22;;;;;;;85.30;34.90;;;;;;;7.37;100.00;100480.02;661572;1310;138597;-80
2022/11/15 03:45:50;;;;;;;67.30;28.60;;;;;;;7.35;100.00;100461.17;661770;1310;138776;-78
2022/11/15 04:01:12;;;;;;;64.30;27.10;;;;;;;7.29;100.00;100445.27;661694;1302;138735;-79
2022/11/15 04:16:35;;;;;;;67.30;27.50;;;;;;;7.20;100.00;100435.14;661857;1310;138659;-79
2022/11/15 04:32:05;;;;;;;75.90;29.30;;;;;;;7.15;100.00;100443.29;661687;1310;138726;-78
2022/11/15 04:47:29;;;;;;;76.00;29.10;;;;;;;7.19;100.00;100440.59;661925;1310;138698;-78
2022/11/15 05:18:32;;;;;;;88.50;32.30;;;;;;;7.11;100.00;100410.86;661847;1310;138865;-79
2022/11/15 05:33:56;;;;;;;94.00;30.90;;;;;;;7.20;100.00;100393.05;661829;1310;138776;-78
2022/11/15 05:49:21;;;;;;;81.00;30.60;;;;;;;7.27;100.00;100394.95;661729;1310;138759;-78
2022/11/15 06:04:43;;;;;;;86.40;29.60;;;;;;;7.30;100.00;100394.26;661515;1310;138806;-78
2022/11/15 06:20:06;;;;;;;73.10;28.10;;;;;;;7.37;100.00;100392.35;661305;1293;138982;-79
2022/11/15 06:35:28;;;;;;;85.10;36.50;;;;;;;7.33;100.00;100408.60;661511;1304;138907;-78
2022/11/15 06:50:54;;;;;;;90.50;37.70;;;;;;;7.31;100.00;100423.23;661573;1302;139005;-78
2022/11/15 07:06:17;;;;;;;67.20;26.80;;;;;;;7.21;100.00;100420.98;661897;1310;138956;-77
2022/11/15 07:21:39;;;;;;;77.00;32.70;;;;;;;7.22;100.00;100413.98;661571;1310;138747;-78
2022/11/15 07:37:01;;;;;;;61.00;24.70;;;;;;;7.33;100.00;100401.86;661612;1309;138929;-77
2022/11/15 07:52:24;;;;;;;66.20;26.20;;;;;;;7.38;100.00;100398.88;661241;1310;138923;-78
2022/11/15 08:07:47;;;;;;;94.10;39.40;;;;;;;7.28;100.00;100398.77;661415;1310;138627;-78
2022/11/15 08:23:11;;;;;;;78.70;31.00;;;;;;;7.38;100.00;100386.71;661911;1308;138652;-79
2022/11/15 08:38:33;;;;;;;66.60;26.20;;;;;;;7.50;100.00;100378.14;661649;1309;139124;-78
2022/11/15 08:53:55;;;;;;;68.00;27.30;;;;;;;7.54;100.00;100381.39;661655;1310;138750;-78
2022/11/15 09:09:17;;;;;;;90.40;35.90;;;;;;;7.52;100.00;100375.08;661644;1310;138799;-78
2022/11/15 09:24:39;;;;;;;47.90;21.60;;;;;;;7.63;100.00;100364.70;661281;1310;139058;-78
2022/11/15 09:40:02;;;;;;;67.10;26.50;;;;;;;7.70;100.00;100363.09;661574;1307;138699;-78
2022/11/15 09:55:38;;;;;;;93.00;33.10;;;;;;;7.69;100.00;100353.98;661585;1310;139352;-78
2022/11/15 10:10:46;;;;;;;92.20;38.70;;;;;;;7.87;100.00;100337.80;661673;1310;139179;-79
2022/11/15 10:25:58;;;;;;;221.90;91.90;;;;;;;7.98;100.00;100330.75;661819;1308;138778;-79
2022/11/15 10:41:11;;;;;;;80.40;35.30;;;;;;;8.20;100.00;100322.42;661784;1309;138925;-78
2022/11/15 10:56:22;;;;;;;132.30;56.80;;;;;;;8.37;100.00;100306.31;661511;1301;139001;-79
2022/11/15 11:11:48;;;;;;;69.10;27.20;;;;;;;8.46;100.00;100294.78;661395;1310;138985;-78
2022/11/15 11:27:21;;;;;;;65.10;28.00;;;;;;;8.69;100.00;100286.75;661224;1310;139786;-79
2022/11/15 11:42:43;;;;;;;65.70;30.60;;;;;;;8.75;100.00;100271.83;661887;1310;138662;-83
2022/11/15 11:58:13;;;;;;;101.60;38.70;;;;;;;8.73;100.00;100262.17;661398;1297;149293;-83
2022/11/15 12:13:23;;;;;;;74.50;29.00;;;;;;;8.68;100.00;100263.27;661590;1302;138919;-83
2022/11/15 12:28:42;;;;;;;73.80;30.20;;;;;;;8.64;100.00;100248.06;661593;1310;139045;-82
2022/11/15 12:44:12;;;;;;;84.60;30.90;;;;;;;8.72;100.00;100239.56;661494;1309;138836;-83
2022/11/15 13:00:03;;;;;;;61.80;25.60;;;;;;;8.64;100.00;100235.37;661803;1300;138746;-83
2022/11/15 13:15:13;;;;;;;78.00;34.10;;;;;;;8.59;100.00;100235.02;661755;1309;138680;-80
2022/11/15 13:30:22;;;;;;;51.40;22.20;;;;;;;8.55;100.00;100234.46;661935;1305;138728;-80
2022/11/15 13:45:26;;;;;;;59.80;26.00;;;;;;;8.55;100.00;100216.07;661504;1310;138892;-80
2022/11/15 14:00:43;;;;;;;69.60;28.70;;;;;;;8.57;100.00;100212.17;661544;1309;139176;-77
2022/11/15 14:15:47;;;;;;;82.40;32.40;;;;;;;8.37;100.00;100212.05;661157;1310;138927;-76
2022/11/15 14:30:54;;;;;;;73.00;32.30;;;;;;;8.28;100.00;100202.60;661670;1310;138972;-77
2022/11/15 14:45:59;;;;;;;81.10;32.80;;;;;;;8.35;100.00;100184.66;661229;1304;138830;-76
2022/11/15 15:01:13;;;;;;;87.70;40.40;;;;;;;8.33;100.00;100177.69;661879;1308;138718;-76
2022/11/15 15:16:18;;;;;;;74.00;33.20;;;;;;;8.18;100.00;100180.73;661396;1310;139061;-77
2022/11/15 15:31:21;;;;;;;98.90;41.00;;;;;;;8.17;100.00;100176.11;661128;1310;138746;-77
2022/11/15 15:46:27;;;;;;;94.60;41.00;;;;;;;8.18;100.00;100169.95;661283;1304;138952;-77
2022/11/15 16:01:37;;;;;;;110.00;43.60;;;;;;;8.02;100.00;100167.70;661428;1307;138832;-78
2022/11/15 16:16:41;;;;;;;218.10;67.50;;;;;;;8.07;100.00;100158.66;661245;1309;138802;-78
2022/11/15 16:31:45;;;;;;;85.40;31.90;;;;;;;7.92;100.00;100150.91;661388;1310;139625;-78
2022/11/15 16:46:53;;;;;;;64.30;33.20;;;;;;;7.87;100.00;100147.88;661607;1307;138589;-78
2022/11/15 17:01:57;;;;;;;74.40;33.40;;;;;;;7.88;100.00;100149.88;661612;1296;138772;-78
2022/11/15 17:17:01;;;;;;;267.60;80.20;;;;;;;7.87;100.00;100154.51;661852;1310;138670;-78
2022/11/15 17:32:05;;;;;;;160.10;55.50;;;;;;;7.72;100.00;100141.39;661720;1310;139103;-77
2022/11/15 17:47:09;;;;;;;282.80;119.40;;;;;;;7.74;100.00;100143.60;661847;1304;139102;-77
2022/11/15 18:02:13;;;;;;;95.10;39.40;;;;;;;7.76;100.00;100159.47;661328;1310;139083;-76
2022/11/15 18:17:17;;;;;;;99.70;40.00;;;;;;;7.83;100.00;100157.76;661333;1312;138743;-76
2022/11/15 18:32:22;;;;;;;99.50;37.90;;;;;;;7.85;100.00;100148.72;662774;1294;138706;-77
2022/11/15 18:47:26;;;;;;;114.30;47.20;;;;;;;7.88;100.00;100143.75;661967;1310;138931;-78
2022/11/15 19:02:30;;;;;;;187.50;64.60;;;;;;;7.87;100.00;100134.99;661632;1310;138936;-79
2022/11/15 19:17:34;;;;;;;119.10;45.00;;;;;;;7.85;100.00;100152.84;661429;1310;139428;-77
2022/11/15 19:32:37;;;;;;;79.60;32.90;;;;;;;7.79;100.00;100142.90;661208;1311;139999;-77
2022/11/15 19:47:42;;;;;;;96.80;37.60;;;;;;;7.91;100.00;100137.59;661126;1312;138779;-76
2022/11/15 20:02:46;;;;;;;106.80;38.30;;;;;;;8.05;100.00;100141.25;661212;1308;138704;-76
2022/11/15 20:17:52;;;;;;;73.70;34.90;;;;;;;8.03;100.00;100138.08;661142;1310;138959;-77
2022/11/15 20:32:55;;;;;;;116.30;43.10;;;;;;;8.02;100.00;100140.76;661129;1312;138744;-76
2022/11/15 20:47:59;;;;;;;72.80;31.00;;;;;;;8.12;100.00;100131.25;661433;1312;138946;-76
2022/11/15 21:03:07;;;;;;;96.80;39.30;;;;;;;8.17;100.00;100122.30;661565;1311;138821;-76
2022/11/15 21:18:11;;;;;;;74.70;29.30;;;;;;;8.27;100.00;100116.42;661728;1311;138750;-79
2022/11/15 21:33:14;;;;;;;59.20;24.10;;;;;;;8.26;100.00;100094.09;661836;1310;138865;-76
2022/11/15 21:48:18;;;;;;;78.90;33.10;;;;;;;8.30;100.00;100089.02;661722;1313;138820;-76
2022/11/15 22:19:48;;;;;;;86.40;33.20;;;;;;;8.42;100.00;100083.36;661995;1308;138763;-77
2022/11/15 22:34:55;;;;;;;73.80;32.50;;;;;;;8.42;100.00;100079.32;661555;1310;138671;-77
2022/11/15 22:49:58;;;;;;;54.20;25.90;;;;;;;8.40;100.00;100056.14;661027;1310;139047;-76
2022/11/15 23:05:02;;;;;;;46.10;19.50;;;;;;;8.43;100.00;100045.96;661678;1310;138590;-77
2022/11/15 23:20:07;;;;;;;47.50;19.60;;;;;;;8.48;100.00;100052.70;661654;1310;138748;-77
2022/11/15 23:35:30;;;;;;;55.80;23.80;;;;;;;8.45;100.00;100030.48;661863;1310;138844;-78
2022/11/15 23:50:35;;;;;;;72.90;27.80;;;;;;;8.41;100.00;100030.09;661306;1310;159867;-77
